createdAt,value
2022-11-01T00:01:25.862Z,15.86
2022-11-01T00:06:27.770Z,15.89
2022-11-01T00:11:29.609Z,15.94
2022-11-01T00:16:31.709Z,15.92
2022-11-01T00:21:33.617Z,15.87
2022-11-01T00:26:35.576Z,15.74
2022-11-01T00:31:37.618Z,15.62
2022-11-01T00:36:39.478Z,15.57
2022-11-01T00:41:41.351Z,15.52
2022-11-01T00:46:43.173Z,15.50
2022-11-01T00:51:44.988Z,15.51
2022-11-01T00:56:46.787Z,15.50
2022-11-01T01:01:49.086Z,15.45
2022-11-01T01:06:51.032Z,15.42
2022-11-01T01:11:52.917Z,15.33
2022-11-01T01:16:54.690Z,15.28
2022-11-01T01:21:56.835Z,15.24
2022-11-01T01:26:58.922Z,15.24
2022-11-01T01:32:00.726Z,15.08
2022-11-01T01:37:02.536Z,14.95
2022-11-01T01:42:28.906Z,14.92
2022-11-01T01:47:34.031Z,14.88
2022-11-01T01:52:43.603Z,14.85
2022-11-01T01:57:46.355Z,14.83
2022-11-01T02:02:48.236Z,14.85
2022-11-01T02:07:50.519Z,14.90
2022-11-01T02:12:52.462Z,14.92
2022-11-01T02:18:33.558Z,14.97
2022-11-01T02:23:55.644Z,14.99
2022-11-01T02:29:15.962Z,14.97
2022-11-01T02:34:28.656Z,14.89
2022-11-01T02:39:34.215Z,14.83
2022-11-01T02:44:40.230Z,14.79
2022-11-01T02:49:46.518Z,14.72
2022-11-01T02:55:03.576Z,14.76
2022-11-01T03:00:38.046Z,14.73
2022-11-01T03:05:39.793Z,14.66
2022-11-01T03:10:44.282Z,14.69
2022-11-01T03:15:56.968Z,14.73
2022-11-01T03:21:15.780Z,14.69
2022-11-01T03:26:25.191Z,14.66
2022-11-01T03:31:31.604Z,14.65
2022-11-01T03:36:38.601Z,14.64
2022-11-01T03:41:47.105Z,14.59
2022-11-01T03:46:49.934Z,14.55
2022-11-01T03:51:51.781Z,14.56
2022-11-01T03:56:53.564Z,14.54
2022-11-01T04:01:55.521Z,14.52
2022-11-01T04:06:57.727Z,14.47
2022-11-01T04:11:59.519Z,14.44
2022-11-01T04:17:19.888Z,14.40
2022-11-01T04:22:24.486Z,14.38
2022-11-01T04:27:26.560Z,14.33
2022-11-01T04:32:28.332Z,14.24
2022-11-01T04:37:31.677Z,14.19
2022-11-01T04:42:40.469Z,14.19
2022-11-01T04:47:51.001Z,14.03
2022-11-01T04:52:52.789Z,13.94
2022-11-01T04:57:55.081Z,13.96
2022-11-01T05:03:05.783Z,13.94
2022-11-01T05:08:10.553Z,13.91
2022-11-01T05:13:13.322Z,13.89
2022-11-01T05:18:15.468Z,13.84
2022-11-01T05:23:17.327Z,13.77
2022-11-01T05:28:19.167Z,13.66
2022-11-01T05:33:20.995Z,13.50
2022-11-01T05:38:22.826Z,13.38
2022-11-01T05:43:24.926Z,13.33
2022-11-01T05:48:26.749Z,13.32
2022-11-01T05:53:28.568Z,13.34
2022-11-01T05:58:31.093Z,13.27
2022-11-01T06:03:33.900Z,13.22
2022-11-01T06:08:35.967Z,13.21
2022-11-01T06:13:38.172Z,13.24
2022-11-01T06:18:39.964Z,13.25
2022-11-01T06:23:41.835Z,13.26
2022-11-01T06:28:43.838Z,13.24
2022-11-01T06:33:48.622Z,13.27
2022-11-01T06:38:50.790Z,13.31
2022-11-01T06:43:52.588Z,13.33
2022-11-01T06:48:54.458Z,13.39
2022-11-01T06:53:56.266Z,13.50
2022-11-01T06:58:58.093Z,13.56
2022-11-01T07:04:00.249Z,13.59
2022-11-01T07:09:02.219Z,13.66
2022-11-01T07:14:04.451Z,13.71
2022-11-01T07:19:06.512Z,13.77
2022-11-01T07:24:08.372Z,13.87
2022-11-01T07:29:10.151Z,13.97
2022-11-01T07:34:12.130Z,14.08
2022-11-01T07:39:14.075Z,14.19
2022-11-01T07:44:15.863Z,14.43
2022-11-01T07:49:17.653Z,14.60
2022-11-01T07:54:19.454Z,14.64
2022-11-01T07:59:21.240Z,14.76
2022-11-01T08:04:23.446Z,14.88
2022-11-01T08:09:25.238Z,15.02
2022-11-01T08:14:27.038Z,15.13
2022-11-01T08:19:28.884Z,15.30
2022-11-01T08:24:30.933Z,15.47
2022-11-01T08:29:32.714Z,15.68
2022-11-01T08:34:34.999Z,15.90
2022-11-01T08:39:36.939Z,16.06
2022-11-01T08:44:38.767Z,16.06
2022-11-01T08:49:40.639Z,16.13
2022-11-01T08:54:42.486Z,16.32
2022-11-01T08:59:44.318Z,16.58
2022-11-01T09:04:46.106Z,16.75
2022-11-01T09:09:48.046Z,16.99
2022-11-01T09:14:50.632Z,17.67
2022-11-01T09:19:52.656Z,18.60
2022-11-01T09:24:57.069Z,19.16
2022-11-01T09:29:59.135Z,19.66
2022-11-01T09:35:00.945Z,20.02
2022-11-01T09:40:03.625Z,20.27
2022-11-01T09:45:23.087Z,20.52
2022-11-01T09:50:34.530Z,20.64
2022-11-01T09:55:51.248Z,20.68
2022-11-01T10:01:19.917Z,20.76
2022-11-01T10:06:35.854Z,20.73
2022-11-01T10:12:05.329Z,20.73
2022-11-01T10:17:16.059Z,20.68
2022-11-01T10:22:29.202Z,20.54
2022-11-01T10:27:47.890Z,20.29
2022-11-01T10:33:02.908Z,20.17
2022-11-01T10:38:41.500Z,20.43
2022-11-01T10:43:46.273Z,20.60
2022-11-01T10:48:56.986Z,20.72
2022-11-01T10:54:03.935Z,20.80
2022-11-01T10:59:15.369Z,20.84
2022-11-01T11:04:21.800Z,20.91
2022-11-01T11:09:29.698Z,20.92
2022-11-01T11:14:34.093Z,20.87
2022-11-01T11:19:39.781Z,20.80
2022-11-01T11:24:44.137Z,20.80
2022-11-01T11:29:49.885Z,20.81
2022-11-01T11:34:58.562Z,20.89
2022-11-01T11:40:06.042Z,20.93
2022-11-01T11:45:17.118Z,21.01
2022-11-01T11:50:21.744Z,21.03
2022-11-01T11:55:36.699Z,21.06
2022-11-01T12:00:39.383Z,21.02
2022-11-01T12:05:52.821Z,20.97
2022-11-01T12:10:59.109Z,20.98
2022-11-01T12:16:10.250Z,20.94
2022-11-01T12:21:17.926Z,20.94
2022-11-01T12:26:22.750Z,20.92
2022-11-01T12:31:31.182Z,20.93
2022-11-01T12:36:46.370Z,21.02
2022-11-01T12:41:55.629Z,21.04
2022-11-01T12:47:08.941Z,21.03
2022-11-01T12:52:33.083Z,20.95
2022-11-01T12:57:35.515Z,20.91
2022-11-01T13:03:08.031Z,20.95
2022-11-01T13:08:36.410Z,20.98
2022-11-01T13:13:46.126Z,20.83
2022-11-01T13:19:04.621Z,20.81
2022-11-01T13:24:35.802Z,20.74
2022-11-01T13:29:45.442Z,20.69
2022-11-01T13:34:49.873Z,20.68
2022-11-01T13:40:07.508Z,20.64
2022-11-01T13:45:34.276Z,20.51
2022-11-01T13:50:57.620Z,20.44
2022-11-01T13:56:07.512Z,20.43
2022-11-01T14:01:28.868Z,20.38
2022-11-01T14:06:38.902Z,20.39
2022-11-01T14:11:54.145Z,20.34
2022-11-01T14:17:20.872Z,20.25
2022-11-01T14:22:22.618Z,20.21
2022-11-01T14:27:39.180Z,20.15
2022-11-01T14:32:50.458Z,20.15
2022-11-01T14:37:54.893Z,20.13
2022-11-01T14:43:19.969Z,20.13
2022-11-01T14:48:40.408Z,20.13
2022-11-01T14:53:45.535Z,20.09
2022-11-01T14:58:47.942Z,20.05
2022-11-01T15:03:58.908Z,20.01
2022-11-01T15:09:05.156Z,19.92
2022-11-01T15:14:08.242Z,19.89
2022-11-01T15:19:18.497Z,19.81
2022-11-01T15:24:24.022Z,19.75
2022-11-01T15:29:26.078Z,19.73
2022-11-01T15:34:30.295Z,19.67
2022-11-01T15:39:36.094Z,19.61
2022-11-01T15:44:41.885Z,19.55
2022-11-01T15:50:17.939Z,19.52
2022-11-01T15:55:45.900Z,19.41
2022-11-01T16:00:52.810Z,19.31
2022-11-01T16:05:59.762Z,19.31
2022-11-01T16:11:02.131Z,19.36
2022-11-01T16:16:10.852Z,19.38
2022-11-01T16:21:29.532Z,19.34
2022-11-01T16:26:31.475Z,19.02
2022-11-01T16:31:33.553Z,18.80
2022-11-01T16:36:43.218Z,18.60
2022-11-01T16:41:45.089Z,18.63
2022-11-01T16:46:47.108Z,18.59
2022-11-01T16:51:49.792Z,18.45
2022-11-01T16:56:53.878Z,18.45
2022-11-01T17:01:58.626Z,18.34
2022-11-01T17:07:00.865Z,18.20
2022-11-01T17:12:02.755Z,18.16
2022-11-01T17:17:10.810Z,18.10
2022-11-01T17:22:19.652Z,18.04
2022-11-01T17:27:22.463Z,18.03
2022-11-01T17:32:24.384Z,17.97
2022-11-01T17:37:30.157Z,18.01
2022-11-01T17:42:31.964Z,18.02
2022-11-01T17:47:33.761Z,18.01
2022-11-01T17:52:35.605Z,17.98
2022-11-01T17:57:38.890Z,18.01
2022-11-01T18:02:41.010Z,18.06
2022-11-01T18:07:45.561Z,17.96
2022-11-01T18:12:58.083Z,17.92
2022-11-01T18:18:10.269Z,17.89
2022-11-01T18:23:20.086Z,17.82
2022-11-01T18:28:27.967Z,17.77
2022-11-01T18:33:35.629Z,17.71
2022-11-01T18:38:44.467Z,17.73
2022-11-01T18:43:46.604Z,17.60
2022-11-01T18:48:48.446Z,17.58
2022-11-01T18:53:56.454Z,17.55
2022-11-01T18:59:00.433Z,17.54
2022-11-01T19:04:11.354Z,17.58
2022-11-01T19:09:36.197Z,17.59
2022-11-01T19:14:40.180Z,17.58
2022-11-01T19:19:42.857Z,17.51
2022-11-01T19:24:44.743Z,17.49
2022-11-01T19:29:46.737Z,17.44
2022-11-01T19:34:50.044Z,17.40
2022-11-01T19:39:52.672Z,17.38
2022-11-01T19:45:02.629Z,17.32
2022-11-01T19:50:38.315Z,17.26
2022-11-01T19:55:46.745Z,17.21
2022-11-01T20:00:51.640Z,17.17
2022-11-01T20:05:54.700Z,17.15
2022-11-01T20:10:56.510Z,17.10
2022-11-01T20:15:58.329Z,17.07
2022-11-01T20:21:03.052Z,16.99
2022-11-01T20:26:05.181Z,16.96
2022-11-01T20:31:07.026Z,16.90
2022-11-01T20:36:11.417Z,16.82
2022-11-01T20:41:13.430Z,16.79
2022-11-01T20:46:15.380Z,16.73
2022-11-01T20:51:17.312Z,16.55
2022-11-01T20:56:19.209Z,16.42
2022-11-01T21:01:22.171Z,16.31
2022-11-01T21:06:31.753Z,16.28
2022-11-01T21:11:46.172Z,16.16
2022-11-01T21:16:48.346Z,16.10
2022-11-01T21:21:57.455Z,16.07
2022-11-01T21:27:23.980Z,16.06
2022-11-01T21:32:30.185Z,16.06
2022-11-01T21:37:32.210Z,15.99
2022-11-01T21:42:35.741Z,15.89
2022-11-01T21:47:43.151Z,15.79
2022-11-01T21:52:47.584Z,15.68
2022-11-01T21:57:49.969Z,15.64
2022-11-01T22:02:52.303Z,15.64
2022-11-01T22:07:55.890Z,15.55
2022-11-01T22:13:06.654Z,15.48
2022-11-01T22:18:08.864Z,15.49
2022-11-01T22:23:10.708Z,15.44
2022-11-01T22:28:12.907Z,15.35
2022-11-01T22:33:14.783Z,15.23
2022-11-01T22:38:24.184Z,15.26
2022-11-01T22:43:25.986Z,15.28
2022-11-01T22:48:31.405Z,15.32
2022-11-01T22:53:33.209Z,15.27
2022-11-01T22:58:37.713Z,15.26
2022-11-01T23:03:40.418Z,15.29
2022-11-01T23:08:42.211Z,15.30
2022-11-01T23:14:03.062Z,15.28
2022-11-01T23:19:09.667Z,15.33
2022-11-01T23:24:11.471Z,15.39
2022-11-01T23:29:13.796Z,15.42
2022-11-01T23:34:15.641Z,15.38
2022-11-01T23:39:17.684Z,15.26
2022-11-01T23:44:28.659Z,15.19
2022-11-01T23:49:33.101Z,15.02
2022-11-01T23:54:43.671Z,14.86
2022-11-01T23:59:47.024Z,14.73
